Time;durP1;ratioP1;P1;durP2;ratioP2;P2;SDS_P1;SDS_P2;PMS_P1;PMS_P2;Temp;Humidity;BMP_temperature;BMP_pressure;BME280_temperature;BME280_humidity;BME280_pressure;Samples;Min_cycle;Max_cycle;Signal;HPM_P1;HPM_P2
2023/06/11 00:00:14;;;;;;;;;;;;;;;;;;5055123;28;900;-67
2023/06/11 00:02:41;;;;;;;;;;;;;;;;;;5054452;28;1979;-68
2023/06/11 00:05:08;;;;;;;;;;;;;;;;;;5053597;28;1220;-67
2023/06/11 00:07:34;;;;;;;;;;;;;;;;;;5054569;28;844;-67
2023/06/11 00:10:00;;;;;;;;;;;;;;;;;;5036526;28;1504;-67
2023/06/11 00:12:25;;;;;;;;;;;;;;;;;;5052542;28;1498;-67
2023/06/11 00:14:51;;;;;;;;;;;;;;;;;;5021531;28;1315;-67
2023/06/11 00:17:16;;;;;;;;;;;;;;;;;;5040944;28;1235;-67
2023/06/11 00:19:42;;;;;;;;;;;;;;;;;;5050375;28;1173;-67
2023/06/11 00:22:08;;;;;;;;;;;;;;;;;;5038371;28;1961;-68
2023/06/11 00:24:33;;;;;;;;;;;;;;;;;;5032452;28;1338;-68
2023/06/11 00:27:01;;;;;;;;;;;;;;;;;;5032599;28;899;-67
2023/06/11 00:29:27;;;;;;;;;;;;;;;;;;5033428;28;853;-67
2023/06/11 00:31:52;;;;;;;;;;;;;;;;;;5033192;28;927;-67
2023/06/11 00:34:18;;;;;;;;;;;;;;;;;;5034372;28;856;-67
2023/06/11 00:36:44;;;;;;;;;;;;;;;;;;5033182;28;829;-67
2023/06/11 00:39:10;;;;;;;;;;;;;;;;;;5034716;28;853;-67
2023/06/11 00:41:36;;;;;;;;;;;;;;;;;;5034105;28;1898;-67
2023/06/11 00:44:03;;;;;;;;;;;;;;;;;;5034591;28;865;-68
2023/06/11 00:46:31;;;;;;;;;;;;;;;;;;5034681;28;833;-67
2023/06/11 00:48:56;;;;;;;;;;;;;;;;;;5032659;28;905;-67
2023/06/11 00:51:23;;;;;;;;;;;;;;;;;;5033328;28;889;-68
2023/06/11 00:53:48;;;;;;;;;;;;;;;;;;5033624;28;864;-67
2023/06/11 00:56:17;;;;;;;;;;;;;;;;;;5016324;28;1327;-68
2023/06/11 00:58:45;;;;;;;;;;;;;;;;;;5017035;28;1461;-68
2023/06/11 01:01:15;;;;;;;;;;;;;;;;;;5034695;28;1898;-67
2023/06/11 01:03:41;;;;;;;;;;;;;;;;;;5034407;28;892;-67
2023/06/11 01:06:11;;;;;;;;;;;;;;;;;;5034470;28;1055;-67
2023/06/11 01:08:40;;;;;;;;;;;;;;;;;;5033787;28;857;-67
2023/06/11 01:11:13;;;;;;;;;;;;;;;;;;5033029;28;1204;-67
2023/06/11 01:13:39;;;;;;;;;;;;;;;;;;5049341;28;1086;-67
2023/06/11 01:16:11;;;;;;;;;;;;;;;;;;5056347;28;1479;-68
2023/06/11 01:18:41;;;;;;;;;;;;;;;;;;5073670;28;888;-67
2023/06/11 01:21:12;;;;;;;;;;;;;;;;;;5073919;28;942;-67
2023/06/11 01:24:00;;;;;;;;;;;;;;;;;;5073142;28;838;-67
2023/06/11 01:26:25;;;;;;;;;;;;;;;;;;5055084;28;1159;-67
2023/06/11 01:28:54;;;;;;;;;;;;;;;;;;5073209;28;871;-68
2023/06/11 01:31:21;;;;;;;;;;;;;;;;;;5072933;28;876;-67
2023/06/11 01:33:46;;;;;;;;;;;;;;;;;;5055366;28;897;-67
2023/06/11 01:36:11;;;;;;;;;;;;;;;;;;5073360;28;880;-67
2023/06/11 01:38:41;;;;;;;;;;;;;;;;;;5072689;28;999;-67
2023/06/11 01:41:08;;;;;;;;;;;;;;;;;;5054965;28;1331;-67
2023/06/11 01:43:33;;;;;;;;;;;;;;;;;;5072216;28;1910;-67
2023/06/11 01:45:58;;;;;;;;;;;;;;;;;;5072212;28;892;-67
2023/06/11 01:48:24;;;;;;;;;;;;;;;;;;5037866;28;1236;-67
2023/06/11 01:50:49;;;;;;;;;;;;;;;;;;5054853;28;1179;-66
2023/06/11 01:53:16;;;;;;;;;;;;;;;;;;5054621;28;1310;-67
2023/06/11 01:55:42;;;;;;;;;;;;;;;;;;5054972;28;872;-67
2023/06/11 01:58:07;;;;;;;;;;;;;;;;;;5037722;28;1224;-67
2023/06/11 02:00:33;;;;;;;;;;;;;;;;;;5054054;28;1208;-67
2023/06/11 02:03:01;;;;;;;;;;;;;;;;;;5054113;28;1906;-67
2023/06/11 02:05:27;;;;;;;;;;;;;;;;;;5054976;28;908;-67
2023/06/11 02:07:52;;;;;;;;;;;;;;;;;;5054202;28;1333;-67
2023/06/11 02:10:17;;;;;;;;;;;;;;;;;;5054554;28;833;-67
2023/06/11 02:12:42;;;;;;;;;;;;;;;;;;5072212;28;1054;-67
2023/06/11 02:15:08;;;;;;;;;;;;;;;;;;5037636;28;1291;-68
2023/06/11 02:17:33;;;;;;;;;;;;;;;;;;5054588;28;834;-67
2023/06/11 02:19:58;;;;;;;;;;;;;;;;;;5054065;28;1132;-67
2023/06/11 02:22:24;;;;;;;;;;;;;;;;;;5071829;28;1918;-67
2023/06/11 02:24:49;;;;;;;;;;;;;;;;;;5054385;28;1171;-67
2023/06/11 02:27:15;;;;;;;;;;;;;;;;;;5054560;28;825;-67
2023/06/11 02:29:40;;;;;;;;;;;;;;;;;;5053923;28;1157;-67
2023/06/11 02:32:06;;;;;;;;;;;;;;;;;;5072029;28;821;-67
2023/06/11 02:34:31;;;;;;;;;;;;;;;;;;5072611;28;829;-67
2023/06/11 02:36:57;;;;;;;;;;;;;;;;;;5038236;28;1039;-67
2023/06/11 02:39:22;;;;;;;;;;;;;;;;;;5072572;28;809;-67
2023/06/11 02:41:47;;;;;;;;;;;;;;;;;;5072886;28;1925;-67
2023/06/11 02:44:12;;;;;;;;;;;;;;;;;;5072583;28;813;-66
2023/06/11 02:46:38;;;;;;;;;;;;;;;;;;5073109;28;853;-67
2023/06/11 02:49:03;;;;;;;;;;;;;;;;;;5054817;28;1190;-67
2023/06/11 02:51:28;;;;;;;;;;;;;;;;;;5072326;28;916;-67
2023/06/11 02:53:53;;;;;;;;;;;;;;;;;;5073028;28;774;-67
2023/06/11 02:56:19;;;;;;;;;;;;;;;;;;5073571;28;873;-68
2023/06/11 02:58:44;;;;;;;;;;;;;;;;;;5054223;28;1241;-67
2023/06/11 03:01:10;;;;;;;;;;;;;;;;;;5072258;28;793;-67
2023/06/11 03:03:35;;;;;;;;;;;;;;;;;;5071356;28;1973;-67
2023/06/11 03:06:00;;;;;;;;;;;;;;;;;;5036699;28;1130;-67
2023/06/11 03:08:26;;;;;;;;;;;;;;;;;;5053483;28;1204;-68
2023/06/11 03:10:52;;;;;;;;;;;;;;;;;;5071516;28;1059;-67
2023/06/11 03:13:18;;;;;;;;;;;;;;;;;;5053190;28;1312;-67
2023/06/11 03:15:43;;;;;;;;;;;;;;;;;;5055255;28;844;-67
2023/06/11 03:18:08;;;;;;;;;;;;;;;;;;5057746;28;956;-68
2023/06/11 03:20:33;;;;;;;;;;;;;;;;;;5040469;28;1438;-67
2023/06/11 03:22:59;;;;;;;;;;;;;;;;;;5057152;28;1911;-67
2023/06/11 03:25:24;;;;;;;;;;;;;;;;;;5074863;28;821;-66
2023/06/11 03:27:49;;;;;;;;;;;;;;;;;;5057310;28;1533;-66
2023/06/11 03:30:15;;;;;;;;;;;;;;;;;;5057000;28;1342;-66
2023/06/11 03:32:40;;;;;;;;;;;;;;;;;;5075523;28;805;-66
2023/06/11 03:35:06;;;;;;;;;;;;;;;;;;5074774;28;954;-66
2023/06/11 03:37:31;;;;;;;;;;;;;;;;;;5056887;28;1227;-66
2023/06/11 03:39:56;;;;;;;;;;;;;;;;;;5057532;28;915;-67
2023/06/11 03:42:22;;;;;;;;;;;;;;;;;;5074686;28;1965;-67
2023/06/11 03:44:48;;;;;;;;;;;;;;;;;;5075192;28;955;-67
2023/06/11 03:47:13;;;;;;;;;;;;;;;;;;5075754;28;805;-68
2023/06/11 03:49:38;;;;;;;;;;;;;;;;;;5056985;28;1372;-68
2023/06/11 03:52:04;;;;;;;;;;;;;;;;;;5074810;28;887;-68
2023/06/11 03:54:29;;;;;;;;;;;;;;;;;;5056613;28;1421;-67
2023/06/11 03:56:54;;;;;;;;;;;;;;;;;;5075071;28;816;-66
2023/06/11 03:59:20;;;;;;;;;;;;;;;;;;5074755;28;828;-66
2023/06/11 04:01:45;;;;;;;;;;;;;;;;;;5057748;28;2000;-66
2023/06/11 04:04:10;;;;;;;;;;;;;;;;;;5075590;28;880;-66
2023/06/11 04:06:39;;;;;;;;;;;;;;;;;;5057614;28;995;-66
2023/06/11 04:09:07;;;;;;;;;;;;;;;;;;5077233;28;860;-66
2023/06/11 04:11:33;;;;;;;;;;;;;;;;;;5075059;28;848;-66
2023/06/11 04:13:58;;;;;;;;;;;;;;;;;;5040656;28;1252;-66
2023/06/11 04:16:23;;;;;;;;;;;;;;;;;;5056048;28;991;-66
2023/06/11 04:18:49;;;;;;;;;;;;;;;;;;5075007;28;912;-66
2023/06/11 04:21:14;;;;;;;;;;;;;;;;;;5074811;28;864;-66
2023/06/11 04:23:40;;;;;;;;;;;;;;;;;;5074326;28;1902;-66
2023/06/11 04:26:07;;;;;;;;;;;;;;;;;;5074032;28;853;-67
2023/06/11 04:28:35;;;;;;;;;;;;;;;;;;5073464;28;845;-66
2023/06/11 04:31:01;;;;;;;;;;;;;;;;;;5074474;28;955;-66
2023/06/11 04:33:32;;;;;;;;;;;;;;;;;;5056000;28;1433;-66
2023/06/11 04:36:09;;;;;;;;;;;;;;;;;;5074595;28;889;-66
2023/06/11 04:38:43;;;;;;;;;;;;;;;;;;5073614;28;881;-66
2023/06/11 04:41:11;;;;;;;;;;;;;;;;;;5074304;28;810;-66
2023/06/11 04:43:36;;;;;;;;;;;;;;;;;;5074054;28;1893;-67
2023/06/11 04:46:03;;;;;;;;;;;;;;;;;;5074595;28;860;-67
2023/06/11 04:48:31;;;;;;;;;;;;;;;;;;5073786;28;900;-66
2023/06/11 04:50:59;;;;;;;;;;;;;;;;;;5074432;28;829;-67
2023/06/11 04:53:27;;;;;;;;;;;;;;;;;;5055205;28;849;-67
2023/06/11 04:55:57;;;;;;;;;;;;;;;;;;5073993;28;840;-67
2023/06/11 04:58:23;;;;;;;;;;;;;;;;;;5039154;28;1477;-67
2023/06/11 05:00:49;;;;;;;;;;;;;;;;;;5055436;28;730;-67
2023/06/11 05:03:16;;;;;;;;;;;;;;;;;;5039077;28;1967;-67
2023/06/11 05:05:51;;;;;;;;;;;;;;;;;;5073430;28;888;-68
2023/06/11 05:08:21;;;;;;;;;;;;;;;;;;5055647;28;710;-67
2023/06/11 05:10:47;;;;;;;;;;;;;;;;;;5055994;28;1042;-68
2023/06/11 05:13:12;;;;;;;;;;;;;;;;;;5038864;28;1375;-67
2023/06/11 05:15:37;;;;;;;;;;;;;;;;;;5073169;28;991;-67
2023/06/11 05:18:03;;;;;;;;;;;;;;;;;;5073587;28;905;-68
2023/06/11 05:20:28;;;;;;;;;;;;;;;;;;5054975;28;857;-63
2023/06/11 05:22:58;;;;;;;;;;;;;;;;;;5072819;28;1918;-63
2023/06/11 05:25:27;;;;;;;;;;;;;;;;;;5072916;28;888;-63
2023/06/11 05:27:53;;;;;;;;;;;;;;;;;;5055238;28;959;-63
2023/06/11 05:30:24;;;;;;;;;;;;;;;;;;5038908;28;1220;-63
2023/06/11 05:32:49;;;;;;;;;;;;;;;;;;5039638;28;1414;-63
2023/06/11 05:35:14;;;;;;;;;;;;;;;;;;5073305;28;923;-63
2023/06/11 05:37:39;;;;;;;;;;;;;;;;;;5038020;28;1078;-63
2023/06/11 05:40:06;;;;;;;;;;;;;;;;;;5073292;28;943;-63
2023/06/11 05:42:31;;;;;;;;;;;;;;;;;;5054852;28;1905;-63
2023/06/11 05:44:56;;;;;;;;;;;;;;;;;;5055402;28;1303;-63
2023/06/11 05:47:21;;;;;;;;;;;;;;;;;;5037779;28;1318;-62
2023/06/11 05:49:47;;;;;;;;;;;;;;;;;;5037894;28;1373;-63
2023/06/11 05:52:12;;;;;;;;;;;;;;;;;;5054389;28;785;-63
2023/06/11 05:54:37;;;;;;;;;;;;;;;;;;5053697;28;1109;-62
2023/06/11 05:57:03;;;;;;;;;;;;;;;;;;5072485;28;804;-62
2023/06/11 05:59:28;;;;;;;;;;;;;;;;;;5071926;28;1058;-62
2023/06/11 06:01:53;;;;;;;;;;;;;;;;;;5037599;28;1902;-62
2023/06/11 06:04:19;;;;;;;;;;;;;;;;;;5054072;28;809;-62
2023/06/11 06:06:44;;;;;;;;;;;;;;;;;;5054017;28;915;-62
2023/06/11 06:09:10;;;;;;;;;;;;;;;;;;5037416;28;1157;-62
2023/06/11 06:11:35;;;;;;;;;;;;;;;;;;5037379;28;1354;-62
2023/06/11 06:14:01;;;;;;;;;;;;;;;;;;5072223;28;1207;-62
2023/06/11 06:16:27;;;;;;;;;;;;;;;;;;5053938;28;864;-62
2023/06/11 06:18:52;;;;;;;;;;;;;;;;;;5053652;28;833;-63
2023/06/11 06:21:17;;;;;;;;;;;;;;;;;;5037198;28;1284;-62
2023/06/11 06:23:42;;;;;;;;;;;;;;;;;;5071916;28;1895;-62
2023/06/11 06:26:08;;;;;;;;;;;;;;;;;;5053886;28;889;-62
2023/06/11 06:28:35;;;;;;;;;;;;;;;;;;5053374;28;1270;-62
2023/06/11 06:31:02;;;;;;;;;;;;;;;;;;5054595;28;911;-62
2023/06/11 06:33:30;;;;;;;;;;;;;;;;;;5071429;28;857;-62
2023/06/11 06:35:55;;;;;;;;;;;;;;;;;;5071822;28;861;-62
2023/06/11 06:38:20;;;;;;;;;;;;;;;;;;5037127;28;1262;-62
2023/06/11 06:40:46;;;;;;;;;;;;;;;;;;5036833;28;1327;-62
2023/06/11 06:43:11;;;;;;;;;;;;;;;;;;5053781;28;1910;-62
2023/06/11 06:45:38;;;;;;;;;;;;;;;;;;5053100;28;897;-62
2023/06/11 06:48:03;;;;;;;;;;;;;;;;;;5054211;28;852;-61
2023/06/11 06:50:29;;;;;;;;;;;;;;;;;;5052428;28;1236;-62
2023/06/11 06:52:54;;;;;;;;;;;;;;;;;;5053437;28;821;-62
2023/06/11 06:55:19;;;;;;;;;;;;;;;;;;5053024;28;1005;-62
2023/06/11 06:57:45;;;;;;;;;;;;;;;;;;5053100;28;1037;-61
2023/06/11 07:00:11;;;;;;;;;;;;;;;;;;5053992;28;853;-62
2023/06/11 07:02:36;;;;;;;;;;;;;;;;;;5033797;28;1909;-62
2023/06/11 07:05:01;;;;;;;;;;;;;;;;;;5037155;28;1261;-61
2023/06/11 07:07:26;;;;;;;;;;;;;;;;;;5071134;28;944;-61
2023/06/11 07:09:52;;;;;;;;;;;;;;;;;;5037143;28;1200;-62
2023/06/11 07:12:18;;;;;;;;;;;;;;;;;;5053935;28;861;-61
2023/06/11 07:14:43;;;;;;;;;;;;;;;;;;5053331;28;1205;-62
2023/06/11 07:17:08;;;;;;;;;;;;;;;;;;5072091;28;857;-63
2023/06/11 07:19:34;;;;;;;;;;;;;;;;;;5053275;28;801;-62
2023/06/11 07:21:59;;;;;;;;;;;;;;;;;;5071890;28;1973;-62
2023/06/11 07:24:24;;;;;;;;;;;;;;;;;;5052925;28;1175;-63
2023/06/11 07:26:49;;;;;;;;;;;;;;;;;;5052809;28;1495;-62
2023/06/11 07:29:15;;;;;;;;;;;;;;;;;;5053584;28;1215;-63
2023/06/11 07:31:40;;;;;;;;;;;;;;;;;;5035884;28;1412;-62
2023/06/11 07:34:06;;;;;;;;;;;;;;;;;;5053341;28;1251;-62
2023/06/11 07:36:31;;;;;;;;;;;;;;;;;;5035705;28;1239;-63
2023/06/11 07:38:56;;;;;;;;;;;;;;;;;;5053083;28;892;-62
2023/06/11 07:41:22;;;;;;;;;;;;;;;;;;5070578;28;828;-63
2023/06/11 07:43:47;;;;;;;;;;;;;;;;;;5070977;28;1878;-62
2023/06/11 07:46:14;;;;;;;;;;;;;;;;;;5053312;28;820;-63
2023/06/11 07:48:41;;;;;;;;;;;;;;;;;;5070855;28;845;-63
2023/06/11 07:51:07;;;;;;;;;;;;;;;;;;5053144;28;872;-63
2023/06/11 07:53:33;;;;;;;;;;;;;;;;;;5052393;28;1334;-63
2023/06/11 07:55:58;;;;;;;;;;;;;;;;;;5053043;28;1101;-63
2023/06/11 07:58:23;;;;;;;;;;;;;;;;;;5070891;28;885;-63
2023/06/11 08:00:49;;;;;;;;;;;;;;;;;;5070750;28;884;-62
2023/06/11 08:03:14;;;;;;;;;;;;;;;;;;5056913;28;1965;-63
2023/06/11 08:05:39;;;;;;;;;;;;;;;;;;5056384;28;1232;-63
2023/06/11 08:08:05;;;;;;;;;;;;;;;;;;5040108;28;849;-63
2023/06/11 08:10:32;;;;;;;;;;;;;;;;;;5038707;28;754;-63
2023/06/11 08:12:57;;;;;;;;;;;;;;;;;;5055752;28;1263;-63
2023/06/11 08:15:23;;;;;;;;;;;;;;;;;;5056670;28;1196;-63
2023/06/11 08:17:48;;;;;;;;;;;;;;;;;;5055505;28;928;-63
2023/06/11 08:20:16;;;;;;;;;;;;;;;;;;5074424;28;896;-63
2023/06/11 08:22:41;;;;;;;;;;;;;;;;;;5056169;28;1952;-63
2023/06/11 08:25:08;;;;;;;;;;;;;;;;;;5056767;28;1207;-67
2023/06/11 08:27:33;;;;;;;;;;;;;;;;;;5078192;28;1176;-67
2023/06/11 08:29:58;;;;;;;;;;;;;;;;;;5075040;28;1183;-67
2023/06/11 08:32:24;;;;;;;;;;;;;;;;;;5061104;28;1238;-67
2023/06/11 08:34:50;;;;;;;;;;;;;;;;;;5076543;28;1188;-67
2023/06/11 08:37:15;;;;;;;;;;;;;;;;;;5060693;28;1134;-68
2023/06/11 08:39:41;;;;;;;;;;;;;;;;;;5095082;28;966;-68
2023/06/11 08:42:07;;;;;;;;;;;;;;;;;;5095051;28;1924;-67
2023/06/11 08:44:34;;;;;;;;;;;;;;;;;;5076678;28;902;-67
2023/06/11 08:47:01;;;;;;;;;;;;;;;;;;5094713;28;880;-67
2023/06/11 08:49:27;;;;;;;;;;;;;;;;;;5094364;28;868;-68
2023/06/11 08:51:55;;;;;;;;;;;;;;;;;;5060019;28;1227;-68
2023/06/11 08:54:20;;;;;;;;;;;;;;;;;;5076276;28;928;-68
2023/06/11 08:56:45;;;;;;;;;;;;;;;;;;5075094;28;833;-68
2023/06/11 08:59:11;;;;;;;;;;;;;;;;;;5094075;28;865;-68
2023/06/11 09:01:37;;;;;;;;;;;;;;;;;;5075374;28;1906;-68
2023/06/11 09:04:03;;;;;;;;;;;;;;;;;;5094151;28;963;-68
2023/06/11 09:06:29;;;;;;;;;;;;;;;;;;5057788;28;1227;-68
2023/06/11 09:08:59;;;;;;;;;;;;;;;;;;5059163;28;1548;-69
2023/06/11 09:11:30;;;;;;;;;;;;;;;;;;5093670;28;821;-68
2023/06/11 09:13:55;;;;;;;;;;;;;;;;;;5062989;28;1337;-68
2023/06/11 09:16:20;;;;;;;;;;;;;;;;;;5053901;28;888;-69
2023/06/11 09:18:46;;;;;;;;;;;;;;;;;;5051515;28;829;-68
2023/06/11 09:21:11;;;;;;;;;;;;;;;;;;5052138;28;825;-69
2023/06/11 09:23:37;;;;;;;;;;;;;;;;;;5052601;28;1965;-68
2023/06/11 09:26:03;;;;;;;;;;;;;;;;;;5035658;28;1195;-70
2023/06/11 09:28:32;;;;;;;;;;;;;;;;;;5051765;28;970;-67
2023/06/11 09:30:58;;;;;;;;;;;;;;;;;;5053500;28;920;-68
2023/06/11 09:33:23;;;;;;;;;;;;;;;;;;5051933;28;809;-69
2023/06/11 09:35:49;;;;;;;;;;;;;;;;;;5051382;28;749;-68
2023/06/11 09:38:15;;;;;;;;;;;;;;;;;;5053620;28;859;-69
2023/06/11 09:40:44;;;;;;;;;;;;;;;;;;5034593;28;851;-69
2023/06/11 09:43:09;;;;;;;;;;;;;;;;;;5053151;28;1906;-68
2023/06/11 09:45:35;;;;;;;;;;;;;;;;;;5051542;28;1201;-68
2023/06/11 09:48:01;;;;;;;;;;;;;;;;;;5053320;28;1014;-68
2023/06/11 09:50:26;;;;;;;;;;;;;;;;;;5051791;28;994;-68
2023/06/11 09:52:52;;;;;;;;;;;;;;;;;;5052572;28;849;-70
2023/06/11 09:55:17;;;;;;;;;;;;;;;;;;5051764;28;1211;-68
2023/06/11 09:57:42;;;;;;;;;;;;;;;;;;5052402;28;821;-69
2023/06/11 10:00:10;;;;;;;;;;;;;;;;;;5052815;28;904;-69
2023/06/11 10:02:39;;;;;;;;;;;;;;;;;;5051025;28;1961;-69
2023/06/11 10:05:06;;;;;;;;;;;;;;;;;;5052398;28;732;-69
2023/06/11 10:07:35;;;;;;;;;;;;;;;;;;5053301;28;864;-69
2023/06/11 10:10:00;;;;;;;;;;;;;;;;;;5052459;28;1304;-69
2023/06/11 10:12:36;;;;;;;;;;;;;;;;;;5053415;28;900;-70
2023/06/11 10:15:02;;;;;;;;;;;;;;;;;;5035347;28;1203;-68
2023/06/11 10:17:28;;;;;;;;;;;;;;;;;;5052935;28;872;-68
2023/06/11 10:19:53;;;;;;;;;;;;;;;;;;5051648;28;1395;-69
2023/06/11 10:22:30;;;;;;;;;;;;;;;;;;5051277;28;1906;-69
2023/06/11 10:25:00;;;;;;;;;;;;;;;;;;5052076;28;886;-69
2023/06/11 10:27:34;;;;;;;;;;;;;;;;;;5051490;28;1083;-69
2023/06/11 10:30:00;;;;;;;;;;;;;;;;;;5052033;28;892;-69
2023/06/11 10:32:25;;;;;;;;;;;;;;;;;;5050827;28;904;-68
2023/06/11 10:34:55;;;;;;;;;;;;;;;;;;5050325;28;1389;-68
2023/06/11 10:37:31;;;;;;;;;;;;;;;;;;5051302;28;1133;-69
2023/06/11 10:39:57;;;;;;;;;;;;;;;;;;5051929;28;837;-68
2023/06/11 10:42:42;;;;;;;;;;;;;;;;;;5055323;28;1916;-68
2023/06/11 10:45:08;;;;;;;;;;;;;;;;;;5055353;28;1119;-67
2023/06/11 10:47:43;;;;;;;;;;;;;;;;;;5051286;28;860;-67
2023/06/11 10:50:13;;;;;;;;;;;;;;;;;;5050532;28;1568;-67
2023/06/11 10:52:51;;;;;;;;;;;;;;;;;;5051421;28;896;-67
2023/06/11 10:55:17;;;;;;;;;;;;;;;;;;5050666;28;1119;-68
2023/06/11 10:57:42;;;;;;;;;;;;;;;;;;5050399;28;1295;-67
2023/06/11 11:00:09;;;;;;;;;;;;;;;;;;5051478;28;872;-68
2023/06/11 11:02:34;;;;;;;;;;;;;;;;;;5049798;28;1906;-68
2023/06/11 11:04:59;;;;;;;;;;;;;;;;;;5051222;28;890;-68
2023/06/11 11:07:33;;;;;;;;;;;;;;;;;;5050343;28;1239;-68
2023/06/11 11:09:59;;;;;;;;;;;;;;;;;;5050213;28;1141;-68
2023/06/11 11:12:24;;;;;;;;;;;;;;;;;;5050430;28;1330;-68
2023/06/11 11:14:50;;;;;;;;;;;;;;;;;;5049838;28;1091;-68
2023/06/11 11:17:15;;;;;;;;;;;;;;;;;;5051595;28;829;-68
2023/06/11 11:19:41;;;;;;;;;;;;;;;;;;5050092;28;905;-68
2023/06/11 11:22:06;;;;;;;;;;;;;;;;;;5050139;28;1902;-68
2023/06/11 11:24:35;;;;;;;;;;;;;;;;;;5049981;28;1034;-68
2023/06/11 11:27:01;;;;;;;;;;;;;;;;;;5050240;28;911;-68
2023/06/11 11:29:29;;;;;;;;;;;;;;;;;;5049679;28;1277;-68
2023/06/11 11:31:55;;;;;;;;;;;;;;;;;;5049693;28;1133;-69
2023/06/11 11:34:22;;;;;;;;;;;;;;;;;;5052414;28;829;-68
2023/06/11 11:36:47;;;;;;;;;;;;;;;;;;5052138;28;993;-68
2023/06/11 11:39:14;;;;;;;;;;;;;;;;;;5056494;28;813;-68
2023/06/11 11:41:49;;;;;;;;;;;;;;;;;;5055853;28;1961;-68
2023/06/11 11:44:17;;;;;;;;;;;;;;;;;;5056226;28;841;-68
2023/06/11 11:46:43;;;;;;;;;;;;;;;;;;5055864;28;894;-68
2023/06/11 11:49:09;;;;;;;;;;;;;;;;;;5054541;28;938;-69
2023/06/11 11:51:38;;;;;;;;;;;;;;;;;;5055179;28;757;-68
2023/06/11 11:54:04;;;;;;;;;;;;;;;;;;5055012;28;832;-67
2023/06/11 11:56:33;;;;;;;;;;;;;;;;;;5054919;28;814;-68
2023/06/11 11:58:58;;;;;;;;;;;;;;;;;;5055136;28;821;-68
2023/06/11 12:01:27;;;;;;;;;;;;;;;;;;5054961;28;813;-68
2023/06/11 12:03:56;;;;;;;;;;;;;;;;;;5070066;28;1910;-68
2023/06/11 12:06:23;;;;;;;;;;;;;;;;;;5053709;28;1236;-68
2023/06/11 12:08:48;;;;;;;;;;;;;;;;;;5053115;28;1532;-68
2023/06/11 12:11:13;;;;;;;;;;;;;;;;;;5037171;28;1264;-68
2023/06/11 12:13:39;;;;;;;;;;;;;;;;;;5060814;28;1108;-66
2023/06/11 12:16:04;;;;;;;;;;;;;;;;;;5059785;28;1189;-66
2023/06/11 12:18:30;;;;;;;;;;;;;;;;;;5076141;28;1500;-66
2023/06/11 12:20:55;;;;;;;;;;;;;;;;;;5076159;28;1227;-67
2023/06/11 12:23:20;;;;;;;;;;;;;;;;;;5094810;28;1898;-68
2023/06/11 12:25:47;;;;;;;;;;;;;;;;;;5076315;28;1345;-67
2023/06/11 12:28:12;;;;;;;;;;;;;;;;;;5076464;28;1369;-67
2023/06/11 12:30:37;;;;;;;;;;;;;;;;;;5075521;28;1014;-67
2023/06/11 12:33:03;;;;;;;;;;;;;;;;;;5094293;28;987;-67
2023/06/11 12:35:29;;;;;;;;;;;;;;;;;;5076113;28;892;-68
2023/06/11 12:37:55;;;;;;;;;;;;;;;;;;5075748;28;822;-68
2023/06/11 12:40:20;;;;;;;;;;;;;;;;;;5075740;28;1319;-68
2023/06/11 12:42:46;;;;;;;;;;;;;;;;;;5094052;28;1963;-68
2023/06/11 12:45:11;;;;;;;;;;;;;;;;;;5059156;28;1470;-68
2023/06/11 12:47:37;;;;;;;;;;;;;;;;;;5093013;28;813;-67
2023/06/11 12:50:02;;;;;;;;;;;;;;;;;;5075299;28;1148;-67
2023/06/11 12:52:28;;;;;;;;;;;;;;;;;;5076043;28;1088;-68
2023/06/11 12:54:53;;;;;;;;;;;;;;;;;;5093285;28;821;-67
2023/06/11 12:57:18;;;;;;;;;;;;;;;;;;5094576;28;789;-68
2023/06/11 12:59:43;;;;;;;;;;;;;;;;;;5059673;28;1206;-68
2023/06/11 13:02:12;;;;;;;;;;;;;;;;;;5094550;28;1957;-68
2023/06/11 13:04:37;;;;;;;;;;;;;;;;;;5094780;28;854;-68
2023/06/11 13:07:03;;;;;;;;;;;;;;;;;;5076524;28;774;-67
2023/06/11 13:09:28;;;;;;;;;;;;;;;;;;5094605;28;924;-67
2023/06/11 13:11:54;;;;;;;;;;;;;;;;;;5075789;28;1295;-67
2023/06/11 13:14:20;;;;;;;;;;;;;;;;;;5075519;28;1231;-67
2023/06/11 13:16:46;;;;;;;;;;;;;;;;;;5058891;28;1362;-67
2023/06/11 13:19:11;;;;;;;;;;;;;;;;;;5094134;28;904;-67
2023/06/11 13:21:37;;;;;;;;;;;;;;;;;;5093254;28;900;-67
2023/06/11 13:24:02;;;;;;;;;;;;;;;;;;5075562;28;1906;-68
2023/06/11 13:26:28;;;;;;;;;;;;;;;;;;5093719;28;844;-68
2023/06/11 13:28:53;;;;;;;;;;;;;;;;;;5092629;28;982;-68
2023/06/11 13:31:18;;;;;;;;;;;;;;;;;;5093480;28;879;-68
2023/06/11 13:33:44;;;;;;;;;;;;;;;;;;5092948;28;801;-68
2023/06/11 13:36:09;;;;;;;;;;;;;;;;;;5093210;28;844;-68
2023/06/11 13:38:35;;;;;;;;;;;;;;;;;;5074919;28;1413;-68
2023/06/11 13:41:00;;;;;;;;;;;;;;;;;;5075199;28;880;-68
2023/06/11 13:43:26;;;;;;;;;;;;;;;;;;5093133;28;1905;-68
2023/06/11 13:45:53;;;;;;;;;;;;;;;;;;5075136;28;1389;-68
2023/06/11 13:48:19;;;;;;;;;;;;;;;;;;5093088;28;829;-68
2023/06/11 13:50:47;;;;;;;;;;;;;;;;;;5074475;28;865;-68
2023/06/11 13:53:16;;;;;;;;;;;;;;;;;;5093848;28;995;-68
2023/06/11 13:55:42;;;;;;;;;;;;;;;;;;5074613;28;1227;-68
2023/06/11 13:58:07;;;;;;;;;;;;;;;;;;5074696;28;1199;-68
2023/06/11 14:00:33;;;;;;;;;;;;;;;;;;5058673;28;1292;-68
2023/06/11 14:03:01;;;;;;;;;;;;;;;;;;5074030;28;1960;-68
2023/06/11 14:05:27;;;;;;;;;;;;;;;;;;5093324;28;860;-68
2023/06/11 14:07:53;;;;;;;;;;;;;;;;;;5092251;28;935;-68
2023/06/11 14:10:18;;;;;;;;;;;;;;;;;;5073792;28;1287;-68
2023/06/11 14:12:44;;;;;;;;;;;;;;;;;;5057456;28;1177;-68
2023/06/11 14:15:10;;;;;;;;;;;;;;;;;;5074539;28;1109;-68
2023/06/11 14:17:39;;;;;;;;;;;;;;;;;;5092396;28;987;-68
2023/06/11 14:20:05;;;;;;;;;;;;;;;;;;5058249;28;1224;-69
2023/06/11 14:22:31;;;;;;;;;;;;;;;;;;5074818;28;1907;-67
2023/06/11 14:24:57;;;;;;;;;;;;;;;;;;5092829;28;1009;-67
2023/06/11 14:27:22;;;;;;;;;;;;;;;;;;5092866;28;987;-67
2023/06/11 14:29:48;;;;;;;;;;;;;;;;;;5092792;28;940;-68
2023/06/11 14:32:13;;;;;;;;;;;;;;;;;;5057399;28;927;-67
2023/06/11 14:34:38;;;;;;;;;;;;;;;;;;5092270;28;900;-68
2023/06/11 14:37:04;;;;;;;;;;;;;;;;;;5091820;28;829;-68
2023/06/11 14:39:29;;;;;;;;;;;;;;;;;;5074219;28;1238;-68
2023/06/11 14:41:54;;;;;;;;;;;;;;;;;;5073904;28;1894;-68
2023/06/11 14:44:20;;;;;;;;;;;;;;;;;;5092335;28;868;-68
2023/06/11 14:46:45;;;;;;;;;;;;;;;;;;5073455;28;810;-68
2023/06/11 14:49:11;;;;;;;;;;;;;;;;;;5091638;28;892;-68
2023/06/11 14:51:36;;;;;;;;;;;;;;;;;;5073381;28;845;-68
2023/06/11 14:54:02;;;;;;;;;;;;;;;;;;5092019;28;821;-67
2023/06/11 14:56:27;;;;;;;;;;;;;;;;;;5074131;28;1190;-68
2023/06/11 14:58:53;;;;;;;;;;;;;;;;;;5091236;28;896;-68
2023/06/11 15:01:18;;;;;;;;;;;;;;;;;;5091779;28;884;-68
2023/06/11 15:03:43;;;;;;;;;;;;;;;;;;5090834;28;1913;-68
2023/06/11 15:06:10;;;;;;;;;;;;;;;;;;5055515;28;1109;-69
2023/06/11 15:08:37;;;;;;;;;;;;;;;;;;5091629;28;1172;-68
2023/06/11 15:11:02;;;;;;;;;;;;;;;;;;5093481;28;836;-68
2023/06/11 15:13:27;;;;;;;;;;;;;;;;;;5063540;28;1223;-68
2023/06/11 15:15:53;;;;;;;;;;;;;;;;;;5079853;28;1198;-68
2023/06/11 15:18:18;;;;;;;;;;;;;;;;;;5080077;28;821;-68
2023/06/11 15:20:43;;;;;;;;;;;;;;;;;;5098065;28;1059;-68
2023/06/11 15:23:08;;;;;;;;;;;;;;;;;;5097863;28;1920;-70
2023/06/11 15:25:34;;;;;;;;;;;;;;;;;;5096335;28;1160;-68
2023/06/11 15:27:59;;;;;;;;;;;;;;;;;;5077348;28;1183;-69
2023/06/11 15:30:26;;;;;;;;;;;;;;;;;;5078172;28;892;-68
2023/06/11 15:32:51;;;;;;;;;;;;;;;;;;5043329;28;1101;-69
2023/06/11 15:35:16;;;;;;;;;;;;;;;;;;5060074;28;1514;-68
2023/06/11 15:37:42;;;;;;;;;;;;;;;;;;5060847;28;861;-68
2023/06/11 15:40:07;;;;;;;;;;;;;;;;;;5044018;28;1125;-68
2023/06/11 15:42:32;;;;;;;;;;;;;;;;;;5043703;28;1963;-68
2023/06/11 15:44:58;;;;;;;;;;;;;;;;;;5061146;28;833;-68
2023/06/11 15:47:23;;;;;;;;;;;;;;;;;;5078871;28;936;-68
2023/06/11 15:49:48;;;;;;;;;;;;;;;;;;5060964;28;1073;-68
2023/06/11 15:52:13;;;;;;;;;;;;;;;;;;5079411;28;927;-68
2023/06/11 15:54:39;;;;;;;;;;;;;;;;;;5060113;28;1219;-69
2023/06/11 15:57:06;;;;;;;;;;;;;;;;;;5060873;28;821;-68
2023/06/11 15:59:31;;;;;;;;;;;;;;;;;;5079291;28;861;-68
2023/06/11 16:01:57;;;;;;;;;;;;;;;;;;5060612;28;1906;-68
2023/06/11 16:04:25;;;;;;;;;;;;;;;;;;5043657;28;1208;-68
2023/06/11 16:06:51;;;;;;;;;;;;;;;;;;5060052;28;1322;-68
2023/06/11 16:09:16;;;;;;;;;;;;;;;;;;5078302;28;817;-68
2023/06/11 16:11:41;;;;;;;;;;;;;;;;;;5078415;28;836;-68
2023/06/11 16:14:06;;;;;;;;;;;;;;;;;;5043970;28;1335;-69
2023/06/11 16:16:32;;;;;;;;;;;;;;;;;;5078790;28;837;-68
2023/06/11 16:18:57;;;;;;;;;;;;;;;;;;5078074;28;856;-68
2023/06/11 16:21:22;;;;;;;;;;;;;;;;;;5077987;28;919;-69
2023/06/11 16:23:47;;;;;;;;;;;;;;;;;;5056748;28;1979;-68
2023/06/11 16:26:13;;;;;;;;;;;;;;;;;;5074738;28;837;-68
2023/06/11 16:28:38;;;;;;;;;;;;;;;;;;5056889;28;852;-68
2023/06/11 16:31:03;;;;;;;;;;;;;;;;;;5056451;28;770;-68
2023/06/11 16:33:29;;;;;;;;;;;;;;;;;;5073846;28;856;-68
2023/06/11 16:35:54;;;;;;;;;;;;;;;;;;5074256;28;833;-68
2023/06/11 16:38:20;;;;;;;;;;;;;;;;;;5056276;28;830;-68
2023/06/11 16:40:45;;;;;;;;;;;;;;;;;;5072357;28;1274;-68
2023/06/11 16:43:11;;;;;;;;;;;;;;;;;;5038303;28;1906;-69
2023/06/11 16:45:36;;;;;;;;;;;;;;;;;;5073986;28;909;-69
2023/06/11 16:48:01;;;;;;;;;;;;;;;;;;5054216;28;1195;-68
2023/06/11 16:50:27;;;;;;;;;;;;;;;;;;5073723;28;853;-69
2023/06/11 16:52:52;;;;;;;;;;;;;;;;;;5056095;28;1350;-68
2023/06/11 16:55:20;;;;;;;;;;;;;;;;;;5074075;28;865;-68
2023/06/11 16:57:46;;;;;;;;;;;;;;;;;;5055735;28;841;-68
2023/06/11 17:00:11;;;;;;;;;;;;;;;;;;5054762;28;861;-68
2023/06/11 17:02:37;;;;;;;;;;;;;;;;;;5054434;28;1910;-68
2023/06/11 17:05:02;;;;;;;;;;;;;;;;;;5072203;28;836;-68